Terminal Aerodrome Forecast
Issued by NWS

Home | Current Version | Previous Version | Text Only | Print | Product List | Glossary On
Versions: 1 2 3 4 5 6 7 8 9 10 11 12 13 14 15 16
000
FTUS41 KPHI 272300
TAFMIV
TAF
KMIV 272320Z 2800/2824 24004KT P6SM FEW050
     FM280700 28003KT P6SM BKN050
     FM281000 32006KT P6SM FEW050
     FM281400 33010KT P6SM SKC
     FM281800 33011G18KT P6SM FEW040=

USA.gov is the U.S. government's official web portal to all federal, state and local government web resources and services.